Time;durP1;ratioP1;P1;durP2;ratioP2;P2;SDS_P1;SDS_P2;PMS_P1;PMS_P2;Temp;Humidity;BMP_temperature;BMP_pressure;BME280_temperature;BME280_humidity;BME280_pressure;Samples;Min_cycle;Max_cycle;Signal;HPM_P1;HPM_P2
2022/03/21 00:01:20;;;;;;;7.53;2.45;;;3.50;99.90;;;;;;5125319;29;20717;-75
2022/03/21 00:03:52;;;;;;;8.02;2.50;;;3.60;99.90;;;;;;5107900;29;20031;-75
2022/03/21 00:06:23;;;;;;;4.78;1.80;;;3.50;99.90;;;;;;5108225;29;20387;-75
2022/03/21 00:08:55;;;;;;;10.27;2.60;;;3.50;99.90;;;;;;5124033;28;20028;-81
2022/03/21 00:11:26;;;;;;;8.68;2.50;;;3.50;99.90;;;;;;5125357;29;20035;-74
2022/03/21 00:13:57;;;;;;;8.48;2.80;;;3.50;99.90;;;;;;5125339;29;20432;-77
2022/03/21 00:16:28;;;;;;;8.35;2.42;;;3.60;99.90;;;;;;5125368;29;20106;-75
2022/03/21 00:19:00;;;;;;;8.10;2.50;;;3.50;99.90;;;;;;5125293;29;20023;-75
2022/03/21 00:21:32;;;;;;;6.05;2.22;;;3.50;99.90;;;;;;5108051;29;20531;-80
2022/03/21 00:24:04;;;;;;;10.75;3.00;;;3.50;99.90;;;;;;5124907;29;20035;-74
2022/03/21 00:26:35;;;;;;;6.60;2.03;;;3.50;99.90;;;;;;5125271;29;20468;-74
2022/03/21 00:29:07;;;;;;;8.02;2.72;;;3.60;99.90;;;;;;5126977;28;20034;-81
2022/03/21 00:31:38;;;;;;;5.15;2.00;;;3.60;99.90;;;;;;5128716;29;20023;-74
2022/03/21 00:34:09;;;;;;;8.25;1.98;;;3.60;99.90;;;;;;5128380;29;20031;-74
2022/03/21 00:36:40;;;;;;;7.70;2.15;;;3.60;99.90;;;;;;5128585;29;20460;-74
2022/03/21 00:39:11;;;;;;;5.00;1.55;;;3.60;99.90;;;;;;5111202;29;20484;-74
2022/03/21 00:41:42;;;;;;;5.30;1.88;;;3.70;99.90;;;;;;5111228;29;20039;-74
2022/03/21 00:44:13;;;;;;;6.13;1.83;;;3.70;99.90;;;;;;5110724;29;20039;-75
2022/03/21 00:46:44;;;;;;;3.33;1.58;;;3.60;99.90;;;;;;5111190;29;20027;-74
2022/03/21 00:49:14;;;;;;;8.25;2.30;;;3.80;99.90;;;;;;5128447;29;20015;-74
2022/03/21 00:51:45;;;;;;;11.00;2.38;;;3.70;99.90;;;;;;5128401;29;20353;-75
2022/03/21 00:54:16;;;;;;;7.93;2.10;;;3.70;99.90;;;;;;5128210;29;20026;-75
2022/03/21 00:56:47;;;;;;;4.72;1.80;;;3.70;99.90;;;;;;5128267;29;20042;-80
2022/03/21 00:59:18;;;;;;;8.32;2.00;;;3.70;99.90;;;;;;5126606;29;20019;-75
2022/03/21 01:01:48;;;;;;;7.97;2.42;;;3.70;99.90;;;;;;5126847;29;20039;-75
2022/03/21 01:04:19;;;;;;;17.92;3.00;;;3.80;99.90;;;;;;5127742;29;20074;-81
2022/03/21 01:06:50;;;;;;;8.82;2.33;;;3.70;99.90;;;;;;5128021;29;20027;-81
2022/03/21 01:09:21;;;;;;;7.03;2.13;;;3.80;99.90;;;;;;5127912;28;20038;-74
2022/03/21 01:11:51;;;;;;;10.65;2.38;;;3.70;99.90;;;;;;5110470;29;20050;-74
2022/03/21 01:14:22;;;;;;;10.95;2.92;;;3.80;99.90;;;;;;5127875;29;20023;-75
2022/03/21 01:16:55;;;;;;;6.85;2.30;;;3.70;99.90;;;;;;5110604;29;20138;-74
2022/03/21 01:19:30;;;;;;;7.60;2.10;;;3.70;99.90;;;;;;5127841;29;20023;-75
2022/03/21 01:22:00;;;;;;;6.10;2.03;;;3.80;99.90;;;;;;5127714;29;20164;-80
2022/03/21 01:24:32;;;;;;;10.30;2.08;;;3.90;99.90;;;;;;5127601;29;20039;-75
2022/03/21 01:27:04;;;;;;;7.57;2.67;;;3.80;99.90;;;;;;5127700;29;20085;-81
2022/03/21 01:29:35;;;;;;;8.27;1.92;;;3.90;99.90;;;;;;5127425;29;20035;-74
2022/03/21 01:32:07;;;;;;;11.27;2.00;;;3.80;99.90;;;;;;5127548;29;20472;-74
2022/03/21 01:34:38;;;;;;;10.05;2.30;;;3.90;99.90;;;;;;5127413;29;20110;-74
2022/03/21 01:37:09;;;;;;;8.75;2.03;;;3.80;99.90;;;;;;5109880;28;20118;-80
2022/03/21 01:39:40;;;;;;;9.45;1.85;;;3.90;99.90;;;;;;5127123;28;20023;-75
2022/03/21 01:42:11;;;;;;;11.68;2.00;;;3.90;99.90;;;;;;5127157;29;20023;-75
2022/03/21 01:44:42;;;;;;;9.40;2.20;;;4.00;99.90;;;;;;5127263;29;20468;-74
2022/03/21 01:47:14;;;;;;;3.97;1.48;;;3.90;99.90;;;;;;5127207;29;20120;-74
2022/03/21 01:49:45;;;;;;;5.47;1.75;;;3.90;99.90;;;;;;5127240;29;20104;-74
2022/03/21 01:52:16;;;;;;;9.80;1.80;;;3.80;99.90;;;;;;5109950;29;20540;-74
2022/03/21 01:57:38;;;;;;;12.77;2.40;;;3.80;99.90;;;;;;5127354;29;20066;-77
2022/03/21 02:00:10;;;;;;;7.93;1.85;;;3.80;99.90;;;;;;5125464;29;20087;-74
2022/03/21 02:02:41;;;;;;;12.00;2.22;;;3.70;99.90;;;;;;5109590;29;20035;-74
2022/03/21 02:05:11;;;;;;;6.50;2.03;;;3.70;99.90;;;;;;5126840;29;20031;-75
2022/03/21 02:07:43;;;;;;;6.43;2.10;;;3.70;99.90;;;;;;5126786;28;20027;-81
2022/03/21 02:10:13;;;;;;;7.95;1.95;;;3.60;99.90;;;;;;5109713;29;20031;-74
2022/03/21 02:12:45;;;;;;;7.65;2.17;;;3.70;99.90;;;;;;5125630;29;20152;-74
2022/03/21 02:15:17;;;;;;;9.52;3.25;;;3.70;99.90;;;;;;5126835;29;20078;-75
2022/03/21 02:17:49;;;;;;;9.57;2.72;;;3.60;99.90;;;;;;5109601;29;20420;-81
2022/03/21 02:20:22;;;;;;;7.53;2.33;;;3.60;99.90;;;;;;5109528;29;20480;-75
2022/03/21 02:23:39;;;;;;;6.78;2.25;;;3.50;99.90;;;;;;5109205;29;20109;-75
2022/03/21 02:26:12;;;;;;;10.77;3.22;;;3.50;99.90;;;;;;5126560;29;20110;-76
2022/03/21 02:28:45;;;;;;;6.55;2.17;;;3.60;99.90;;;;;;5126371;29;20106;-74
2022/03/21 02:31:17;;;;;;;13.80;2.33;;;3.50;99.90;;;;;;5126428;29;20035;-74
2022/03/21 02:33:48;;;;;;;5.13;2.30;;;3.50;99.90;;;;;;5109194;29;20034;-74
2022/03/21 02:36:20;;;;;;;12.40;1.73;;;3.50;99.90;;;;;;5126267;29;20038;-74
2022/03/21 02:38:52;;;;;;;8.95;2.22;;;3.50;99.90;;;;;;5108996;29;20023;-79
2022/03/21 02:41:23;;;;;;;12.18;1.92;;;3.50;99.90;;;;;;5126328;29;20023;-75
2022/03/21 02:43:56;;;;;;;5.30;1.52;;;3.50;99.90;;;;;;5126109;29;20062;-74
2022/03/21 02:46:27;;;;;;;17.23;2.10;;;3.50;99.90;;;;;;5109016;29;20031;-75
2022/03/21 02:48:58;;;;;;;13.27;2.10;;;3.50;99.90;;;;;;5126296;29;20368;-74
2022/03/21 02:51:31;;;;;;;10.43;1.85;;;3.70;99.90;;;;;;5125528;28;20030;-74
2022/03/21 02:54:02;;;;;;;7.88;2.13;;;3.60;99.90;;;;;;5124785;29;20043;-76
2022/03/21 02:56:33;;;;;;;5.50;2.08;;;3.70;99.90;;;;;;5125869;29;20539;-75
2022/03/21 02:59:04;;;;;;;7.05;2.25;;;3.50;99.90;;;;;;5108556;29;20054;-75
2022/03/21 03:01:36;;;;;;;8.57;2.25;;;3.50;99.90;;;;;;5126170;29;20114;-80
2022/03/21 03:04:07;;;;;;;9.23;2.42;;;3.50;99.90;;;;;;5108494;29;20502;-75
2022/03/21 03:06:39;;;;;;;10.32;2.70;;;3.40;99.90;;;;;;5125979;29;20019;-75
2022/03/21 03:09:10;;;;;;;10.50;3.17;;;3.40;99.90;;;;;;5125819;28;20047;-78
2022/03/21 03:11:41;;;;;;;9.68;2.55;;;3.40;99.90;;;;;;5124663;29;20078;-75
2022/03/21 03:14:12;;;;;;;6.93;2.08;;;3.40;99.90;;;;;;5125609;29;20035;-75
2022/03/21 03:16:43;;;;;;;8.55;2.90;;;3.20;99.90;;;;;;5125846;29;20388;-76
2022/03/21 03:19:14;;;;;;;12.80;2.97;;;3.20;99.90;;;;;;5125798;29;20477;-75
2022/03/21 03:21:46;;;;;;;9.73;2.75;;;3.20;99.90;;;;;;5125735;29;20103;-80
2022/03/21 03:24:22;;;;;;;9.57;2.55;;;3.40;99.90;;;;;;5125624;29;20046;-75
2022/03/21 03:26:52;;;;;;;7.57;2.10;;;3.20;99.90;;;;;;5125787;29;20034;-79
2022/03/21 03:29:23;;;;;;;9.77;2.05;;;3.20;99.90;;;;;;5125657;29;20495;-75
2022/03/21 03:31:54;;;;;;;8.73;2.17;;;3.20;99.90;;;;;;5125709;29;20420;-75
2022/03/21 03:34:25;;;;;;;10.68;2.67;;;3.20;99.90;;;;;;5108437;29;20024;-75
2022/03/21 03:36:56;;;;;;;8.93;2.00;;;3.10;99.90;;;;;;5125590;28;20027;-75
2022/03/21 03:39:28;;;;;;;13.70;3.20;;;3.20;99.90;;;;;;5125684;29;20063;-74
2022/03/21 03:41:59;;;;;;;7.78;2.90;;;3.20;99.90;;;;;;5125493;29;20034;-75
2022/03/21 03:44:30;;;;;;;9.88;2.70;;;3.20;99.90;;;;;;5124181;29;20035;-74
2022/03/21 03:47:01;;;;;;;8.80;2.95;;;3.00;99.90;;;;;;5125346;29;20031;-75
2022/03/21 03:49:32;;;;;;;12.45;2.90;;;3.20;99.90;;;;;;5125492;29;20051;-75
2022/03/21 03:52:03;;;;;;;8.85;2.88;;;3.20;99.90;;;;;;5124284;29;20062;-74
2022/03/21 03:54:34;;;;;;;6.68;2.30;;;3.10;99.90;;;;;;5125390;29;20020;-79
2022/03/21 03:57:05;;;;;;;7.75;2.83;;;3.30;99.90;;;;;;5108084;29;20031;-74
2022/03/21 03:59:35;;;;;;;10.07;2.60;;;3.10;99.90;;;;;;5124925;29;20059;-75
2022/03/21 04:02:08;;;;;;;9.48;2.35;;;3.20;99.90;;;;;;5125797;28;20108;-75
2022/03/21 04:04:39;;;;;;;17.05;2.80;;;3.20;99.90;;;;;;5129119;29;20031;-79
2022/03/21 04:07:10;;;;;;;10.32;3.38;;;3.20;99.90;;;;;;5129048;28;20054;-75
2022/03/21 04:09:40;;;;;;;13.88;3.40;;;3.20;99.90;;;;;;5129072;29;20113;-78
2022/03/21 04:12:11;;;;;;;10.65;3.63;;;3.10;99.90;;;;;;5127768;29;20118;-77
2022/03/21 04:14:46;;;;;;;12.23;3.15;;;3.20;99.90;;;;;;5128976;29;20027;-78
2022/03/21 04:17:17;;;;;;;13.93;3.42;;;3.20;99.90;;;;;;5129190;29;20334;-75
2022/03/21 04:19:48;;;;;;;6.68;2.25;;;3.30;99.90;;;;;;5111718;29;20023;-75
2022/03/21 04:22:19;;;;;;;7.35;2.88;;;3.40;99.90;;;;;;5128679;29;20031;-75
2022/03/21 04:24:50;;;;;;;15.02;2.95;;;3.40;99.90;;;;;;5127551;29;20031;-75
2022/03/21 04:27:21;;;;;;;6.95;2.90;;;3.40;99.90;;;;;;5128736;29;20110;-75
2022/03/21 04:29:51;;;;;;;12.68;3.10;;;3.40;99.90;;;;;;5128699;29;20027;-75
2022/03/21 04:32:22;;;;;;;11.45;3.70;;;3.40;99.90;;;;;;5128517;29;20038;-75
2022/03/21 04:34:53;;;;;;;12.70;3.35;;;3.30;99.90;;;;;;5128588;29;20098;-75
2022/03/21 04:37:25;;;;;;;10.57;3.35;;;3.30;99.90;;;;;;5128291;28;20471;-75
2022/03/21 04:39:56;;;;;;;9.65;3.00;;;3.40;99.90;;;;;;5128608;29;20046;-75
2022/03/21 04:42:27;;;;;;;10.20;3.20;;;3.30;99.90;;;;;;5111109;29;20051;-75
2022/03/21 04:44:58;;;;;;;9.27;2.90;;;3.40;99.90;;;;;;5127181;29;20085;-75
2022/03/21 04:47:29;;;;;;;8.25;2.97;;;3.30;99.90;;;;;;5128511;29;20388;-75
2022/03/21 04:50:01;;;;;;;9.35;2.80;;;3.50;99.90;;;;;;5128409;29;20027;-75
2022/03/21 04:52:31;;;;;;;9.10;2.92;;;3.40;99.90;;;;;;5128379;29;20122;-75
2022/03/21 04:55:06;;;;;;;10.90;2.42;;;3.50;99.90;;;;;;5128285;29;20089;-75
2022/03/21 04:57:37;;;;;;;8.77;2.38;;;3.60;99.90;;;;;;5128239;29;20349;-75
2022/03/21 05:00:08;;;;;;;10.77;2.78;;;3.50;99.90;;;;;;5127975;29;20110;-75
2022/03/21 05:02:39;;;;;;;9.82;2.60;;;3.60;99.90;;;;;;5127727;29;20094;-78
2022/03/21 05:05:10;;;;;;;8.25;2.67;;;3.50;99.90;;;;;;5126905;29;20043;-75
2022/03/21 05:07:42;;;;;;;13.68;2.83;;;3.50;99.90;;;;;;5128009;28;20023;-76
2022/03/21 05:10:16;;;;;;;7.53;3.05;;;3.60;99.90;;;;;;5110814;29;20543;-75
2022/03/21 05:12:47;;;;;;;12.82;3.08;;;3.80;99.90;;;;;;5126724;29;20383;-77
2022/03/21 05:15:18;;;;;;;8.70;2.60;;;4.00;99.90;;;;;;5126033;28;20031;-75
2022/03/21 05:17:51;;;;;;;8.88;2.42;;;4.30;99.90;;;;;;5126657;29;20026;-75
2022/03/21 05:20:22;;;;;;;11.95;2.85;;;4.40;99.90;;;;;;5127848;29;20032;-76
2022/03/21 05:31:21;;;;;;;5.63;2.03;;;4.70;99.90;;;;;;5127737;29;20038;-78
2022/03/21 05:36:41;;;;;;;10.05;2.80;;;5.00;99.90;;;;;;5127601;29;20058;-75
2022/03/21 05:39:12;;;;;;;9.10;2.35;;;4.90;99.90;;;;;;5127388;28;20493;-78
2022/03/21 05:41:43;;;;;;;10.25;2.90;;;4.70;99.90;;;;;;5127583;29;20374;-76
2022/03/21 05:44:14;;;;;;;8.95;2.45;;;4.50;99.90;;;;;;5127172;29;20094;-75
2022/03/21 05:46:45;;;;;;;13.25;3.45;;;4.50;99.90;;;;;;5127298;29;20034;-75
2022/03/21 05:49:16;;;;;;;11.05;2.75;;;4.70;99.90;;;;;;5127253;29;20488;-77
2022/03/21 05:51:47;;;;;;;7.72;2.70;;;4.70;99.90;;;;;;5127044;29;20460;-78
2022/03/21 05:54:18;;;;;;;7.07;2.60;;;4.60;99.90;;;;;;5127182;29;20047;-75
2022/03/21 05:56:49;;;;;;;9.13;2.78;;;4.80;99.90;;;;;;5127157;29;20032;-75
2022/03/21 06:02:09;;;;;;;10.23;3.00;;;4.70;99.90;;;;;;5126994;29;20062;-75
2022/03/21 06:04:40;;;;;;;14.68;3.33;;;4.90;99.90;;;;;;5126790;29;20027;-75
2022/03/21 06:07:11;;;;;;;7.78;3.10;;;4.80;99.90;;;;;;5125571;28;20062;-80
2022/03/21 06:09:43;;;;;;;6.97;2.80;;;5.10;99.90;;;;;;5125603;29;20122;-75
2022/03/21 06:12:14;;;;;;;9.90;2.90;;;4.90;99.90;;;;;;5109728;29;20458;-75
2022/03/21 06:14:45;;;;;;;10.10;3.10;;;4.80;99.90;;;;;;5126760;29;20023;-76
2022/03/21 06:17:15;;;;;;;7.10;2.30;;;5.00;99.90;;;;;;5126775;29;20039;-76
2022/03/21 06:19:46;;;;;;;7.20;2.70;;;4.90;99.90;;;;;;5126407;29;20050;-75
2022/03/21 06:22:17;;;;;;;6.57;3.13;;;5.40;99.90;;;;;;5126583;29;20090;-76
2022/03/21 06:24:48;;;;;;;14.27;2.75;;;5.60;99.90;;;;;;5109404;29;20039;-79
2022/03/21 06:27:19;;;;;;;9.80;2.72;;;5.80;99.90;;;;;;5124499;28;20030;-76
2022/03/21 06:29:49;;;;;;;15.70;3.05;;;6.20;99.90;;;;;;5126418;29;20131;-75
2022/03/21 06:32:20;;;;;;;12.82;2.67;;;6.40;99.90;;;;;;5125295;29;20030;-75
2022/03/21 06:34:52;;;;;;;10.27;2.50;;;6.50;99.90;;;;;;5126453;29;20436;-75
2022/03/21 06:37:23;;;;;;;12.80;2.67;;;6.50;99.90;;;;;;5126266;28;20031;-75
2022/03/21 06:39:54;;;;;;;8.43;2.30;;;6.20;99.90;;;;;;5126328;29;20546;-76
2022/03/21 06:42:24;;;;;;;7.80;2.75;;;6.10;99.90;;;;;;5126152;29;20027;-75
2022/03/21 06:44:55;;;;;;;8.15;3.22;;;5.70;99.90;;;;;;5126297;29;20031;-79
2022/03/21 06:47:26;;;;;;;7.45;2.90;;;6.20;99.90;;;;;;5108859;29;20102;-75
2022/03/21 06:49:57;;;;;;;10.43;3.10;;;6.30;99.90;;;;;;5126233;29;20035;-76
2022/03/21 06:52:28;;;;;;;8.27;2.47;;;6.60;99.90;;;;;;5126130;29;20027;-76
2022/03/21 06:54:58;;;;;;;10.70;3.17;;;6.50;99.90;;;;;;5126101;29;20030;-76
2022/03/21 06:57:30;;;;;;;7.65;3.20;;;6.60;99.90;;;;;;5125900;29;20446;-75
2022/03/21 07:00:02;;;;;;;8.68;3.00;;;6.80;99.90;;;;;;5125736;29;20043;-78
2022/03/21 07:02:33;;;;;;;7.95;2.75;;;6.70;99.90;;;;;;5125894;29;20070;-75
2022/03/21 07:05:06;;;;;;;5.72;2.30;;;6.70;99.90;;;;;;5125935;29;20038;-75
2022/03/21 07:07:37;;;;;;;11.57;2.63;;;6.10;99.90;;;;;;5125857;28;20054;-75
2022/03/21 07:10:09;;;;;;;12.85;3.10;;;6.50;99.90;;;;;;5125751;29;20431;-75
2022/03/21 07:12:40;;;;;;;8.75;3.05;;;6.20;99.90;;;;;;5125875;29;20038;-76
2022/03/21 07:15:12;;;;;;;6.95;2.72;;;6.00;99.90;;;;;;5108610;29;20023;-75
2022/03/21 07:17:43;;;;;;;8.85;2.85;;;6.20;99.90;;;;;;5125898;29;20027;-76
2022/03/21 07:20:14;;;;;;;6.65;2.22;;;6.30;99.90;;;;;;5124724;29;20491;-75
2022/03/21 07:22:45;;;;;;;6.88;2.50;;;5.80;99.90;;;;;;5125622;29;20162;-75
2022/03/21 07:25:15;;;;;;;12.52;3.03;;;5.70;99.90;;;;;;5125821;29;20031;-75
2022/03/21 07:27:46;;;;;;;8.68;2.90;;;5.60;99.90;;;;;;5125786;29;20023;-75
2022/03/21 07:30:18;;;;;;;10.75;3.10;;;5.60;99.90;;;;;;5125737;29;20039;-75
2022/03/21 07:32:49;;;;;;;8.82;2.95;;;5.50;99.90;;;;;;5125692;29;20098;-79
2022/03/21 07:35:20;;;;;;;9.77;3.17;;;5.70;99.90;;;;;;5125753;29;20023;-75
2022/03/21 07:37:57;;;;;;;11.63;3.75;;;6.20;99.90;;;;;;5127290;28;20158;-75
2022/03/21 07:40:28;;;;;;;7.30;3.17;;;6.00;99.90;;;;;;5129802;29;20379;-78
2022/03/21 07:42:59;;;;;;;12.65;4.05;;;5.90;99.90;;;;;;5129342;29;20019;-75
2022/03/21 07:48:19;;;;;;;8.68;3.47;;;5.50;99.90;;;;;;5129602;29;20099;-79
2022/03/21 07:50:50;;;;;;;10.63;3.45;;;5.30;99.90;;;;;;5112016;29;20529;-75
2022/03/21 07:53:21;;;;;;;15.60;3.35;;;5.10;99.90;;;;;;5129507;29;20061;-75
2022/03/21 07:55:52;;;;;;;7.93;3.33;;;5.20;99.90;;;;;;5129481;29;20059;-75
2022/03/21 07:58:23;;;;;;;8.27;3.13;;;5.00;99.90;;;;;;5111933;29;20043;-75
2022/03/21 08:00:56;;;;;;;11.30;3.65;;;5.10;99.90;;;;;;5129172;29;20051;-75
2022/03/21 08:03:28;;;;;;;12.73;3.60;;;5.10;99.90;;;;;;5127781;29;20089;-75
2022/03/21 08:05:59;;;;;;;12.00;3.35;;;5.10;99.90;;;;;;5129231;29;20114;-75
2022/03/21 08:08:30;;;;;;;12.52;3.95;;;5.20;99.90;;;;;;5129081;28;20023;-75
2022/03/21 08:11:01;;;;;;;13.52;4.47;;;5.30;99.90;;;;;;5129257;29;20034;-75
2022/03/21 08:13:32;;;;;;;12.32;3.70;;;5.30;99.90;;;;;;5111710;29;20523;-75
2022/03/21 08:16:04;;;;;;;12.40;3.70;;;5.30;99.90;;;;;;5129086;29;20035;-76
2022/03/21 08:18:37;;;;;;;12.63;4.15;;;5.50;99.90;;;;;;5129020;29;20423;-79
2022/03/21 08:21:09;;;;;;;10.00;3.22;;;5.50;99.90;;;;;;5127725;29;20082;-75
2022/03/21 08:23:42;;;;;;;15.15;3.90;;;5.50;99.90;;;;;;5128720;29;20122;-75
2022/03/21 08:26:13;;;;;;;8.20;3.72;;;5.60;99.90;;;;;;5128942;29;20023;-75
2022/03/21 08:28:45;;;;;;;8.05;3.50;;;5.60;99.90;;;;;;5128528;29;20028;-76
2022/03/21 08:31:16;;;;;;;10.05;3.90;;;6.30;99.90;;;;;;5128721;29;20028;-76
2022/03/21 08:33:47;;;;;;;9.95;3.50;;;7.00;99.90;;;;;;5128675;29;20027;-75
2022/03/21 08:36:18;;;;;;;10.88;4.30;;;7.10;99.90;;;;;;5128489;29;20483;-75
2022/03/21 08:38:49;;;;;;;11.63;3.72;;;6.80;99.90;;;;;;5128552;28;20019;-75
2022/03/21 08:41:21;;;;;;;8.70;3.70;;;6.50;99.90;;;;;;5128551;29;20161;-75
2022/03/21 08:43:52;;;;;;;8.63;3.15;;;6.20;99.90;;;;;;5128380;29;20031;-75
2022/03/21 08:46:23;;;;;;;8.30;3.30;;;6.30;99.90;;;;;;5128515;29;20380;-76
2022/03/21 08:51:43;;;;;;;10.00;3.90;;;7.10;99.90;;;;;;5128458;29;20090;-79
2022/03/21 08:54:14;;;;;;;8.68;3.80;;;7.10;99.90;;;;;;5127020;29;20022;-76
2022/03/21 08:56:47;;;;;;;8.55;3.95;;;7.40;99.90;;;;;;5128350;29;20032;-79
2022/03/21 08:59:18;;;;;;;6.43;3.17;;;7.70;99.90;;;;;;5110613;29;20379;-76
2022/03/21 09:01:49;;;;;;;9.70;3.72;;;7.60;99.90;;;;;;5111042;29;20483;-77
2022/03/21 09:04:20;;;;;;;8.60;4.00;;;7.50;99.90;;;;;;5127965;29;20035;-76
2022/03/21 09:06:51;;;;;;;11.18;4.05;;;7.80;99.90;;;;;;5127990;28;20026;-76
2022/03/21 09:09:22;;;;;;;10.60;3.92;;;8.20;99.90;;;;;;5128067;29;20031;-76
2022/03/21 09:11:53;;;;;;;7.90;4.40;;;8.20;99.90;;;;;;5128070;29;20379;-77
2022/03/21 09:14:23;;;;;;;9.55;3.70;;;8.40;99.90;;;;;;5110656;29;20039;-77
2022/03/21 09:16:56;;;;;;;10.05;3.67;;;7.90;99.90;;;;;;5128059;29;20456;-77
2022/03/21 09:19:29;;;;;;;8.25;3.60;;;8.10;99.90;;;;;;5127903;29;20030;-77
2022/03/21 09:22:00;;;;;;;9.50;3.67;;;8.10;99.90;;;;;;5127694;29;20023;-77
2022/03/21 09:24:32;;;;;;;10.10;3.92;;;8.70;99.90;;;;;;5127633;29;20039;-77
2022/03/21 09:27:03;;;;;;;16.88;3.30;;;8.50;99.90;;;;;;5127821;29;20031;-76
2022/03/21 09:29:34;;;;;;;10.05;3.83;;;8.10;99.90;;;;;;5126328;29;20126;-77
2022/03/21 09:32:05;;;;;;;10.73;3.85;;;7.80;99.90;;;;;;5127734;29;20106;-77
2022/03/21 09:34:39;;;;;;;11.60;4.13;;;7.70;99.90;;;;;;5127561;29;20019;-76
2022/03/21 09:37:11;;;;;;;7.90;3.78;;;8.10;99.90;;;;;;5127504;28;20035;-76
2022/03/21 09:39:41;;;;;;;8.00;3.78;;;8.50;99.90;;;;;;5127592;29;20030;-77
2022/03/21 09:42:14;;;;;;;10.15;3.88;;;8.10;99.90;;;;;;5127093;29;20039;-76
2022/03/21 09:44:53;;;;;;;8.45;3.30;;;7.50;99.90;;;;;;5110000;29;20498;-75
2022/03/21 09:50:15;;;;;;;11.68;3.80;;;8.40;99.90;;;;;;5127307;29;20095;-76
2022/03/21 09:52:46;;;;;;;7.88;3.13;;;9.00;99.90;;;;;;5127093;29;20020;-75
2022/03/21 09:55:17;;;;;;;8.77;2.78;;;8.80;99.90;;;;;;5110012;29;20029;-76
2022/03/21 09:57:47;;;;;;;10.40;3.80;;;8.20;99.90;;;;;;5127116;29;20097;-76
2022/03/21 10:00:18;;;;;;;9.25;3.72;;;8.30;99.90;;;;;;5125418;28;20070;-76
2022/03/21 10:02:49;;;;;;;9.90;3.33;;;8.30;99.90;;;;;;5109350;29;20526;-75
2022/03/21 10:05:34;;;;;;;10.85;3.22;;;8.70;99.90;;;;;;5127069;29;20035;-76
2022/03/21 10:08:23;;;;;;;7.78;3.38;;;9.10;99.90;;;;;;5126857;28;20501;-76
2022/03/21 10:11:05;;;;;;;9.30;3.63;;;8.70;99.90;;;;;;5127020;29;20061;-76
2022/03/21 10:13:38;;;;;;;6.15;2.70;;;9.40;99.90;;;;;;5126835;29;20039;-75
2022/03/21 10:16:15;;;;;;;8.95;3.70;;;9.00;99.90;;;;;;5109841;29;20051;-75
2022/03/21 10:18:52;;;;;;;12.85;3.83;;;8.90;99.90;;;;;;5126749;29;20127;-76
2022/03/21 10:21:29;;;;;;;8.32;3.28;;;9.10;99.90;;;;;;5126781;29;20483;-76
2022/03/21 10:24:07;;;;;;;9.20;3.65;;;8.40;99.90;;;;;;5109205;29;20051;-76
2022/03/21 10:26:44;;;;;;;9.15;3.15;;;8.90;99.90;;;;;;5109431;29;20448;-76
2022/03/21 10:29:15;;;;;;;10.68;3.70;;;8.90;99.90;;;;;;5109239;29;20492;-76
2022/03/21 10:31:48;;;;;;;8.93;3.90;;;8.00;99.90;;;;;;5126526;29;20121;-76
2022/03/21 10:34:22;;;;;;;9.18;3.28;;;8.40;99.90;;;;;;5126405;29;20096;-76
2022/03/21 10:37:08;;;;;;;8.88;3.92;;;8.10;99.90;;;;;;5125134;28;20043;-76
2022/03/21 10:39:40;;;;;;;9.07;3.72;;;8.80;99.90;;;;;;5109163;29;20110;-76
2022/03/21 10:42:11;;;;;;;9.10;4.28;;;8.50;99.90;;;;;;5126312;29;20031;-76
2022/03/21 10:44:54;;;;;;;11.25;3.88;;;8.80;99.90;;;;;;5108853;29;20038;-76
2022/03/21 10:47:25;;;;;;;12.85;4.47;;;8.60;99.90;;;;;;5109125;29;20027;-76
2022/03/21 10:50:02;;;;;;;10.18;4.20;;;8.00;99.90;;;;;;5124960;29;20488;-76
2022/03/21 10:52:32;;;;;;;12.82;3.88;;;7.40;99.90;;;;;;5126000;29;20042;-76
2022/03/21 10:55:04;;;;;;;10.95;3.92;;;8.30;99.90;;;;;;5108755;29;20039;-76
2022/03/21 10:57:37;;;;;;;15.07;4.07;;;8.50;99.90;;;;;;5126177;29;20395;-76
2022/03/21 11:00:34;;;;;;;10.38;3.55;;;9.30;99.90;;;;;;5125763;29;20511;-75
2022/03/21 11:03:13;;;;;;;7.80;3.75;;;9.10;99.90;;;;;;5124121;29;20051;-76
2022/03/21 11:05:46;;;;;;;8.40;4.13;;;9.70;99.90;;;;;;5126082;29;20031;-75
2022/03/21 11:08:18;;;;;;;8.57;3.30;;;9.00;99.90;;;;;;5125875;28;20027;-76
2022/03/21 11:10:49;;;;;;;10.90;4.00;;;8.50;99.90;;;;;;5125942;29;20032;-75
2022/03/21 11:13:23;;;;;;;10.10;3.63;;;8.10;99.90;;;;;;5125137;28;20495;-76
2022/03/21 11:15:54;;;;;;;10.60;3.70;;;9.10;99.90;;;;;;5125787;29;20043;-76
2022/03/21 11:18:26;;;;;;;8.50;3.72;;;8.90;99.90;;;;;;5125853;29;20023;-76
2022/03/21 11:20:58;;;;;;;8.98;3.55;;;8.80;99.90;;;;;;5125889;29;20039;-76
2022/03/21 11:23:30;;;;;;;10.85;4.25;;;8.40;99.90;;;;;;5125459;29;20098;-76
2022/03/21 11:26:11;;;;;;;9.32;4.32;;;7.90;99.90;;;;;;5125827;29;20453;-76
2022/03/21 11:28:45;;;;;;;9.98;4.15;;;7.80;99.90;;;;;;5124467;29;20102;-76
2022/03/21 11:31:51;;;;;;;9.35;3.65;;;8.30;99.90;;;;;;5125816;29;20063;-76
2022/03/21 11:34:31;;;;;;;12.30;4.05;;;7.70;99.90;;;;;;5125720;29;20109;-76
2022/03/21 11:37:02;;;;;;;9.75;3.63;;;8.20;99.90;;;;;;5125652;28;20020;-76
2022/03/21 11:39:33;;;;;;;11.35;4.20;;;8.90;99.90;;;;;;5124409;29;20509;-75
2022/03/21 11:42:10;;;;;;;8.48;3.97;;;9.20;99.90;;;;;;5125573;29;20734;-76
2022/03/21 11:44:42;;;;;;;11.93;4.00;;;8.90;99.90;;;;;;5124358;29;20035;-76
2022/03/21 11:47:28;;;;;;;9.57;4.40;;;8.30;99.90;;;;;;5125597;29;20110;-76
2022/03/21 11:49:59;;;;;;;7.28;4.00;;;8.60;99.90;;;;;;5125546;29;20034;-76
2022/03/21 11:53:21;;;;;;;7.90;3.70;;;9.10;99.90;;;;;;5125309;29;20035;-76
2022/03/21 11:55:52;;;;;;;9.52;4.72;;;8.90;99.90;;;;;;5082741;29;20381;-76
2022/03/21 11:58:23;;;;;;;7.68;4.15;;;9.60;99.90;;;;;;5125322;29;20031;-76
2022/03/21 12:01:07;;;;;;;8.80;4.55;;;9.60;99.90;;;;;;5104292;29;20063;-76
2022/03/21 12:03:38;;;;;;;8.93;4.22;;;8.90;99.90;;;;;;5105490;29;20040;-76
2022/03/21 12:06:27;;;;;;;10.00;4.20;;;9.60;99.90;;;;;;5105682;29;20030;-76
2022/03/21 12:08:59;;;;;;;10.38;3.92;;;9.20;99.90;;;;;;5105569;29;20034;-76
2022/03/21 12:11:39;;;;;;;10.70;4.32;;;9.70;99.90;;;;;;5105615;29;20032;-76
2022/03/21 12:17:22;;;;;;;8.13;4.20;;;8.00;99.90;;;;;;5093808;29;20108;-76
2022/03/21 12:19:58;;;;;;;11.48;4.60;;;9.00;99.90;;;;;;5105578;29;20032;-76
2022/03/21 12:22:34;;;;;;;11.68;4.75;;;9.00;99.90;;;;;;5105409;29;20380;-76
2022/03/21 12:25:20;;;;;;;12.35;4.63;;;8.50;99.90;;;;;;5108850;29;20118;-75
2022/03/21 12:27:56;;;;;;;12.30;5.03;;;8.10;99.90;;;;;;5109025;29;20027;-75
2022/03/21 12:30:27;;;;;;;16.25;5.22;;;9.10;99.90;;;;;;5107762;29;20039;-76
2022/03/21 12:33:24;;;;;;;12.68;4.53;;;9.80;99.90;;;;;;5108931;29;20020;-76
2022/03/21 12:35:56;;;;;;;11.95;5.22;;;8.90;99.90;;;;;;5109051;29;20024;-75
2022/03/21 12:38:36;;;;;;;13.85;4.50;;;8.40;99.90;;;;;;5108775;29;20027;-75
2022/03/21 12:41:08;;;;;;;8.02;4.47;;;9.70;99.90;;;;;;5108924;29;20024;-75
2022/03/21 12:43:54;;;;;;;9.75;4.40;;;9.00;99.90;;;;;;5108578;29;20519;-75
2022/03/21 12:46:26;;;;;;;9.13;4.10;;;8.40;99.90;;;;;;5107495;29;20024;-75
2022/03/21 12:48:59;;;;;;;11.60;4.18;;;7.90;99.90;;;;;;5108712;29;20058;-75
2022/03/21 12:51:33;;;;;;;6.13;3.85;;;7.50;99.90;;;;;;5108637;29;20102;-75
2022/03/21 12:54:05;;;;;;;14.80;4.18;;;7.50;99.90;;;;;;5107258;29;20028;-75
2022/03/21 12:56:36;;;;;;;12.90;4.55;;;7.70;99.90;;;;;;5108352;29;20036;-75
2022/03/21 12:59:07;;;;;;;8.52;3.35;;;7.70;99.90;;;;;;5109112;29;20020;-74
2022/03/21 13:01:41;;;;;;;11.50;4.10;;;7.40;99.90;;;;;;5128316;29;20035;-75
2022/03/21 13:12:45;;;;;;;11.05;3.97;;;7.70;99.90;;;;;;5126759;29;20033;-75
2022/03/21 13:15:16;;;;;;;11.32;4.45;;;8.60;99.90;;;;;;5127665;29;20452;-75
2022/03/21 13:18:01;;;;;;;8.60;3.63;;;9.20;99.90;;;;;;5126446;29;20034;-75
2022/03/21 13:20:36;;;;;;;14.50;3.78;;;8.70;99.90;;;;;;5110396;29;20087;-75
2022/03/21 13:23:07;;;;;;;9.82;3.90;;;8.90;99.90;;;;;;5127289;29;20027;-75
2022/03/21 13:25:39;;;;;;;11.90;3.88;;;9.00;99.90;;;;;;5110252;29;20046;-75
2022/03/21 13:28:21;;;;;;;11.68;4.18;;;9.60;99.90;;;;;;5110525;29;20023;-75
2022/03/21 13:30:57;;;;;;;9.88;3.65;;;8.90;99.90;;;;;;5127717;29;20042;-74
2022/03/21 13:33:31;;;;;;;11.65;4.53;;;8.50;99.90;;;;;;5110349;29;20070;-75
2022/03/21 13:36:13;;;;;;;9.93;4.47;;;8.60;99.90;;;;;;5127080;28;20066;-75
2022/03/21 13:38:43;;;;;;;9.23;4.05;;;8.30;99.90;;;;;;5127514;28;20066;-75
2022/03/21 13:41:16;;;;;;;13.52;4.05;;;8.70;99.90;;;;;;5127504;29;20074;-75
2022/03/21 13:44:05;;;;;;;10.20;4.30;;;8.20;99.90;;;;;;5127174;29;20376;-75
2022/03/21 13:46:35;;;;;;;9.07;3.50;;;8.20;99.90;;;;;;5126160;29;20035;-74
2022/03/21 13:49:06;;;;;;;8.05;3.42;;;8.40;99.90;;;;;;5127295;29;20503;-75
2022/03/21 13:51:42;;;;;;;11.65;4.20;;;7.70;99.90;;;;;;5127268;29;20435;-75
2022/03/21 13:54:15;;;;;;;9.52;3.55;;;7.80;99.90;;;;;;5109973;29;20023;-75
2022/03/21 13:56:49;;;;;;;7.57;4.32;;;8.50;99.90;;;;;;5127213;29;20031;-75
2022/03/21 13:59:21;;;;;;;5.72;3.70;;;8.40;99.90;;;;;;5126821;29;20070;-75